Sainte-Monique, Canada
Current Conditions -  °F | °C
As of 4:00 AM on Wednesday 22 Oct 2014 (Local Time) from CYRQ Reporting Station
Overcast Overcast  
Wind Chill: 36°   Ceiling: 6500
Heat Index: 43°   Visibility: 9mi
Dew Point: 34°   Wind: 13mph
Humidity: 70%   Direction: 40°NE
Pressure: 30.25"   Gusts: NA
Location:  46.18°N, 72.5°W
Report Text: CYRQ 220800Z AUTO 04011KT 9SM BKN065 OVC074 06/01 A3025 RMK SLP246
Loading
Personal Weather Stations






























Interactive Weather Map
Tropical Storm Tracking
New forecast layout! Learn more

10-Day Weather Forecast

Advertisements
Track Severe Weather on mobile